Time;durP1;ratioP1;P1;durP2;ratioP2;P2;SDS_P1;SDS_P2;PMS_P1;PMS_P2;Temp;Humidity;BMP_temperature;BMP_pressure;BME280_temperature;BME280_humidity;BME280_pressure;Samples;Min_cycle;Max_cycle;Signal;HPM_P1;HPM_P2
2022/01/07 00:00:13;;;;;;;23.00;12.28;;;;;;;4.46;100.00;100364.38;1689957;83;21595;-68
2022/01/07 00:02:40;;;;;;;22.13;11.38;;;;;;;4.36;100.00;100373.52;1690673;84;21135;-68
2022/01/07 00:05:09;;;;;;;20.62;10.72;;;;;;;4.33;100.00;100374.00;1697969;84;20992;-68
2022/01/07 00:07:37;;;;;;;18.07;10.40;;;;;;;4.28;100.00;100385.98;1693388;83;21074;-67
2022/01/07 00:10:09;;;;;;;15.98;9.80;;;;;;;4.11;100.00;100397.34;1690283;84;21477;-68
2022/01/07 00:12:36;;;;;;;15.55;9.35;;;;;;;4.10;100.00;100403.33;1691913;84;21086;-68
2022/01/07 00:15:06;;;;;;;15.93;10.15;;;;;;;4.06;100.00;100395.34;1667875;84;22238;-68
2022/01/07 00:17:33;;;;;;;17.27;10.28;;;;;;;4.02;100.00;100397.55;1693860;84;21067;-68
2022/01/07 00:20:00;;;;;;;16.20;10.45;;;;;;;4.03;100.00;100398.38;1668748;84;21090;-67
2022/01/07 00:22:27;;;;;;;19.30;10.90;;;;;;;3.96;100.00;100388.74;1690062;85;21088;-67
2022/01/07 00:24:54;;;;;;;17.67;10.23;;;;;;;4.02;100.00;100392.45;1694659;83;21126;-67
2022/01/07 00:27:21;;;;;;;15.95;10.25;;;;;;;3.99;100.00;100397.58;1693410;83;21567;-67
2022/01/07 00:29:48;;;;;;;17.82;10.28;;;;;;;4.02;100.00;100400.09;1689921;83;21547;-68
2022/01/07 00:32:15;;;;;;;18.52;10.30;;;;;;;4.00;100.00;100405.20;1693511;83;22375;-68
2022/01/07 00:34:43;;;;;;;18.02;10.10;;;;;;;4.04;100.00;100400.89;1691122;83;21119;-68
2022/01/07 00:37:10;;;;;;;15.58;10.15;;;;;;;4.09;100.00;100399.09;1691318;83;21571;-68
2022/01/07 00:39:38;;;;;;;18.27;10.25;;;;;;;4.11;100.00;100388.43;1691762;83;21107;-67
2022/01/07 00:42:06;;;;;;;19.67;11.03;;;;;;;4.07;100.00;100390.64;1691825;84;21059;-67
2022/01/07 00:44:33;;;;;;;23.75;11.25;;;;;;;4.07;100.00;100399.55;1694609;84;21126;-67
2022/01/07 00:47:00;;;;;;;22.35;12.43;;;;;;;4.10;100.00;100402.05;1692410;84;21067;-67
2022/01/07 00:49:27;;;;;;;21.23;11.78;;;;;;;4.15;100.00;100400.23;1694650;83;21087;-68
2022/01/07 00:51:56;;;;;;;22.30;11.85;;;;;;;4.12;100.00;100404.14;1691113;84;21178;-68
2022/01/07 00:54:23;;;;;;;24.72;13.70;;;;;;;4.08;100.00;100408.89;1690920;85;21094;-67
2022/01/07 00:56:50;;;;;;;24.32;13.62;;;;;;;4.05;100.00;100407.66;1694785;84;21039;-67
2022/01/07 00:59:18;;;;;;;28.92;14.50;;;;;;;4.04;100.00;100403.45;1691400;85;21024;-67
2022/01/07 01:01:47;;;;;;;33.92;17.02;;;;;;;4.03;100.00;100404.30;1702972;83;21052;-68
2022/01/07 01:04:14;;;;;;;32.50;18.23;;;;;;;3.96;100.00;100411.66;1701058;83;21043;-67
2022/01/07 01:06:41;;;;;;;46.18;20.75;;;;;;;3.94;100.00;100422.31;1705770;83;21468;-68
2022/01/07 01:09:09;;;;;;;48.10;23.15;;;;;;;3.90;100.00;100422.80;1707616;83;21098;-68
2022/01/07 01:11:36;;;;;;;60.92;26.60;;;;;;;3.87;100.00;100429.20;1706002;83;21535;-68
2022/01/07 01:14:05;;;;;;;58.98;26.80;;;;;;;3.84;100.00;100430.55;1707323;83;21090;-67
2022/01/07 01:16:33;;;;;;;53.15;25.95;;;;;;;3.83;100.00;100415.28;1697991;83;20991;-68
2022/01/07 01:19:00;;;;;;;60.65;27.27;;;;;;;3.81;100.00;100420.40;1704969;83;20993;-67
2022/01/07 01:21:26;;;;;;;73.92;33.63;;;;;;;3.80;100.00;100422.11;1707978;82;21106;-68
2022/01/07 01:23:53;;;;;;;85.90;39.83;;;;;;;3.80;100.00;100413.64;1699224;83;21008;-67
2022/01/07 01:26:20;;;;;;;101.65;46.73;;;;;;;3.79;100.00;100414.49;1707313;83;21016;-68
2022/01/07 01:28:47;;;;;;;121.50;49.85;;;;;;;3.78;100.00;100411.12;1706803;82;21008;-68
2022/01/07 01:31:16;;;;;;;125.60;52.20;;;;;;;3.77;100.00;100406.05;1702309;83;20993;-68
2022/01/07 01:33:45;;;;;;;137.30;54.70;;;;;;;3.77;100.00;100415.81;1695855;83;21011;-68
2022/01/07 01:36:14;;;;;;;131.05;53.40;;;;;;;3.75;100.00;100416.28;1701735;83;21139;-68
2022/01/07 01:38:42;;;;;;;111.97;46.85;;;;;;;3.76;100.00;100412.02;1708337;83;21484;-67
2022/01/07 01:41:10;;;;;;;80.47;36.98;;;;;;;3.76;100.00;100419.22;1700501;83;21154;-68
2022/01/07 01:43:37;;;;;;;69.03;31.05;;;;;;;3.67;100.00;100417.25;1705174;83;21033;-68
2022/01/07 01:46:04;;;;;;;58.70;27.95;;;;;;;3.64;100.00;100420.70;1704772;82;21066;-68
2022/01/07 01:48:32;;;;;;;50.45;21.48;;;;;;;3.64;100.00;100413.06;1699565;83;21020;-67
2022/01/07 01:50:59;;;;;;;43.68;20.55;;;;;;;3.57;100.00;100411.50;1701146;82;20993;-67
2022/01/07 01:53:26;;;;;;;33.95;16.52;;;;;;;3.55;100.00;100401.34;1701361;84;21012;-67
2022/01/07 01:55:54;;;;;;;30.48;14.68;;;;;;;3.46;100.00;100409.55;1695873;84;21008;-67
2022/01/07 01:58:21;;;;;;;26.05;13.88;;;;;;;3.47;100.00;100410.81;1700712;84;21024;-67
2022/01/07 02:00:48;;;;;;;25.23;13.65;;;;;;;3.46;100.00;100408.28;1704357;83;21122;-67
2022/01/07 02:03:15;;;;;;;27.87;13.60;;;;;;;3.44;100.00;100411.28;1700599;83;21047;-67
2022/01/07 02:05:41;;;;;;;22.98;11.95;;;;;;;3.46;100.00;100404.02;1705936;83;21064;-67
2022/01/07 02:08:09;;;;;;;19.40;11.43;;;;;;;3.47;100.00;100408.67;1708683;83;21485;-67
2022/01/07 02:10:36;;;;;;;22.62;11.20;;;;;;;3.45;100.00;100411.67;1706090;83;21078;-67
2022/01/07 02:13:03;;;;;;;49.42;17.55;;;;;;;3.45;100.00;100418.91;1705419;83;21445;-67
2022/01/07 02:15:30;;;;;;;34.53;12.63;;;;;;;3.45;100.00;100418.04;1703790;83;21090;-67
2022/01/07 02:17:57;;;;;;;21.68;10.23;;;;;;;3.49;100.00;100420.53;1706096;83;21003;-68
2022/01/07 02:20:31;;;;;;;16.75;8.90;;;;;;;3.49;100.00;100422.22;1700280;83;21008;-68
2022/01/07 02:22:59;;;;;;;16.87;9.05;;;;;;;3.44;100.00;100421.47;1700013;83;20999;-68
2022/01/07 02:25:27;;;;;;;17.15;9.33;;;;;;;3.38;100.00;100423.67;1702301;83;21627;-67
2022/01/07 02:27:56;;;;;;;16.42;9.43;;;;;;;3.40;100.00;100435.94;1708957;82;21566;-67
2022/01/07 02:30:27;;;;;;;15.70;9.15;;;;;;;3.41;100.00;100437.63;1707856;83;21118;-68
2022/01/07 02:32:55;;;;;;;15.70;9.53;;;;;;;3.40;100.00;100439.31;1701253;84;21075;-67
2022/01/07 02:35:26;;;;;;;17.98;10.72;;;;;;;3.39;100.00;100440.63;1695824;83;21019;-67
2022/01/07 02:37:53;;;;;;;18.30;11.65;;;;;;;3.40;100.00;100446.95;1700983;82;21087;-67
2022/01/07 02:40:21;;;;;;;14.83;9.90;;;;;;;3.41;100.00;100445.27;1706961;83;21089;-67
2022/01/07 02:42:48;;;;;;;17.02;9.65;;;;;;;3.39;100.00;100448.27;1700031;83;21034;-67
2022/01/07 02:45:16;;;;;;;16.85;9.50;;;;;;;3.38;100.00;100449.95;1704043;83;21055;-67
2022/01/07 02:47:55;;;;;;;18.02;9.43;;;;;;;3.33;100.00;100447.92;1706311;83;21626;-67
2022/01/07 02:50:29;;;;;;;15.63;9.18;;;;;;;3.35;100.00;100457.64;1697298;83;21590;-66
2022/01/07 02:52:58;;;;;;;14.35;8.63;;;;;;;3.33;100.00;100463.19;1703058;83;21055;-67
2022/01/07 02:55:27;;;;;;;16.10;9.77;;;;;;;3.33;100.00;100470.82;1701283;83;21056;-68
2022/01/07 02:57:54;;;;;;;15.90;10.08;;;;;;;3.34;100.00;100472.92;1693491;83;21032;-68
2022/01/07 03:00:22;;;;;;;16.55;8.90;;;;;;;3.33;100.00;100480.16;1695240;83;21015;-67
2022/01/07 03:02:53;;;;;;;17.70;8.95;;;;;;;3.31;100.00;100486.54;1698367;83;21052;-67
2022/01/07 03:05:20;;;;;;;14.07;8.63;;;;;;;3.29;100.00;100493.35;1698967;83;21572;-67
2022/01/07 03:07:49;;;;;;;18.67;9.33;;;;;;;3.28;100.00;100496.74;1694659;83;21039;-67
2022/01/07 03:10:20;;;;;;;17.17;9.75;;;;;;;3.27;100.00;100496.35;1704351;83;21067;-67
2022/01/07 03:12:48;;;;;;;15.10;8.95;;;;;;;3.27;100.00;100500.16;1698998;83;21039;-67
2022/01/07 03:15:15;;;;;;;18.35;8.58;;;;;;;3.26;100.00;100493.82;1701073;83;21023;-67
2022/01/07 03:17:43;;;;;;;17.95;8.75;;;;;;;3.25;100.00;100501.06;1707356;82;21324;-67
2022/01/07 03:20:15;;;;;;;17.37;8.28;;;;;;;3.23;100.00;100502.34;1703147;83;21054;-67
2022/01/07 03:22:44;;;;;;;14.83;7.70;;;;;;;3.18;100.00;100513.00;1708647;82;21741;-67
2022/01/07 03:25:11;;;;;;;14.60;8.03;;;;;;;3.12;100.00;100511.81;1706327;83;21024;-67
2022/01/07 03:27:39;;;;;;;14.68;8.40;;;;;;;3.08;100.00;100515.25;1705308;82;21099;-67
2022/01/07 03:30:09;;;;;;;15.35;8.28;;;;;;;3.06;100.00;100519.52;1701188;82;21034;-67
2022/01/07 03:32:37;;;;;;;16.42;8.80;;;;;;;3.03;100.00;100522.13;1699973;83;21023;-68
2022/01/07 03:35:09;;;;;;;13.58;8.50;;;;;;;3.01;100.00;100529.77;1699260;83;22166;-67
2022/01/07 03:37:38;;;;;;;20.50;9.23;;;;;;;3.01;100.00;100535.68;1704128;82;21028;-67
2022/01/07 03:40:06;;;;;;;16.82;8.90;;;;;;;3.04;100.00;100541.59;1706069;83;21571;-67
2022/01/07 03:42:33;;;;;;;14.23;8.40;;;;;;;3.03;100.00;100550.09;1706595;83;21102;-68
2022/01/07 03:45:00;;;;;;;15.83;8.45;;;;;;;3.05;100.00;100547.94;1699931;83;21064;-67
2022/01/07 03:47:28;;;;;;;15.72;8.65;;;;;;;3.03;100.00;100550.09;1694490;84;21134;-67
2022/01/07 03:49:55;;;;;;;17.30;9.13;;;;;;;3.04;100.00;100546.67;1699650;83;22276;-67
2022/01/07 03:52:22;;;;;;;13.88;8.65;;;;;;;2.99;100.00;100548.02;1702121;83;21094;-67
2022/01/07 03:54:50;;;;;;;15.32;8.13;;;;;;;2.99;100.00;100545.47;1691907;83;21028;-67
2022/01/07 03:57:20;;;;;;;19.00;9.00;;;;;;;2.99;100.00;100546.30;1707976;83;21046;-67
2022/01/07 03:59:48;;;;;;;16.25;8.50;;;;;;;3.02;100.00;100549.23;1704070;82;21102;-67
2022/01/07 04:02:18;;;;;;;13.98;8.13;;;;;;;3.07;100.00;100547.92;1699660;83;21020;-67
2022/01/07 04:04:46;;;;;;;13.43;7.72;;;;;;;3.07;100.00;100541.56;1707909;82;21056;-68
2022/01/07 04:07:13;;;;;;;13.62;7.85;;;;;;;3.03;100.00;100552.64;1713744;82;21042;-67
2022/01/07 04:09:40;;;;;;;14.33;7.35;;;;;;;3.03;100.00;100553.91;1704934;83;21059;-67
2022/01/07 04:12:09;;;;;;;14.70;8.28;;;;;;;2.96;100.00;100560.75;1693910;83;21062;-67
2022/01/07 04:14:36;;;;;;;13.93;8.08;;;;;;;2.92;100.00;100565.45;1704994;83;21055;-67
2022/01/07 04:17:04;;;;;;;15.78;8.35;;;;;;;2.90;100.00;100577.34;1696978;83;21598;-67
2022/01/07 04:19:31;;;;;;;16.25;9.00;;;;;;;2.88;100.00;100573.98;1706236;83;21028;-67
2022/01/07 04:21:58;;;;;;;14.47;7.72;;;;;;;2.87;100.00;100579.94;1699416;83;21051;-67
2022/01/07 04:24:25;;;;;;;15.80;7.85;;;;;;;2.84;100.00;100587.18;1706119;83;21063;-67
2022/01/07 04:26:52;;;;;;;15.50;8.30;;;;;;;2.80;100.00;100580.45;1681602;84;21159;-67
2022/01/07 04:29:19;;;;;;;15.60;8.63;;;;;;;2.78;100.00;100579.19;1698969;83;21019;-67
2022/01/07 04:31:45;;;;;;;15.43;8.65;;;;;;;2.77;100.00;100588.92;1704050;83;20999;-67
2022/01/07 04:34:13;;;;;;;16.25;8.93;;;;;;;2.79;100.00;100600.36;1705868;82;21055;-67
2022/01/07 04:36:40;;;;;;;16.42;9.08;;;;;;;2.81;100.00;100597.37;1702859;82;21563;-68
2022/01/07 04:39:07;;;;;;;15.75;8.48;;;;;;;2.86;100.00;100601.12;1709483;83;21020;-67
2022/01/07 04:41:34;;;;;;;16.67;8.75;;;;;;;2.83;100.00;100602.44;1707001;83;21043;-68
2022/01/07 04:44:01;;;;;;;17.20;8.93;;;;;;;2.81;100.00;100605.83;1702017;83;21064;-68
2022/01/07 04:46:28;;;;;;;15.53;8.60;;;;;;;2.77;100.00;100613.07;1698840;83;21518;-68
2022/01/07 04:48:55;;;;;;;18.80;9.08;;;;;;;2.77;100.00;100613.07;1699693;83;21450;-66
2022/01/07 04:51:23;;;;;;;15.75;8.83;;;;;;;2.74;100.00;100611.85;1700387;84;21111;-67
2022/01/07 04:53:49;;;;;;;17.77;8.80;;;;;;;2.68;100.00;100609.81;1695237;83;21512;-67
2022/01/07 04:56:16;;;;;;;13.30;7.92;;;;;;;2.65;100.00;100608.55;1709019;83;21022;-67
2022/01/07 04:58:43;;;;;;;14.33;8.75;;;;;;;2.61;100.00;100620.00;1706917;82;21071;-67
2022/01/07 05:01:10;;;;;;;16.40;9.65;;;;;;;2.58;100.00;100622.59;1703629;83;20995;-67
2022/01/07 05:03:37;;;;;;;19.35;10.05;;;;;;;2.57;100.00;100625.97;1702036;83;21048;-68
2022/01/07 05:06:43;;;;;;;17.32;9.65;;;;;;;2.61;100.00;100626.36;1702364;83;21549;-67
2022/01/07 05:08:41;;;;;;;17.73;9.28;;;;;;;2.63;100.00;100634.41;1697360;83;21063;-68
2022/01/07 05:11:08;;;;;;;21.40;10.13;;;;;;;2.61;100.00;100644.58;1700497;83;21031;-68
2022/01/07 05:13:36;;;;;;;16.57;9.15;;;;;;;2.63;100.00;100644.14;1702148;83;21790;-68
2022/01/07 05:16:03;;;;;;;18.27;10.00;;;;;;;2.64;100.00;100652.63;1700855;84;21070;-67
2022/01/07 05:18:30;;;;;;;17.17;8.85;;;;;;;2.64;100.00;100656.44;1695681;83;21559;-67
2022/01/07 05:20:57;;;;;;;18.32;9.93;;;;;;;2.69;100.00;100667.39;1704342;83;21111;-67
2022/01/07 05:23:24;;;;;;;20.37;10.48;;;;;;;2.75;100.00;100664.80;1708455;83;21034;-67
2022/01/07 05:25:51;;;;;;;18.07;10.58;;;;;;;2.84;100.00;100674.89;1707302;82;21078;-67
2022/01/07 05:28:18;;;;;;;18.07;9.85;;;;;;;2.84;100.00;100674.02;1704037;82;21016;-68
2022/01/07 05:30:45;;;;;;;19.07;10.00;;;;;;;2.82;100.00;100666.44;1707284;83;21051;-67
2022/01/07 05:33:12;;;;;;;16.97;9.48;;;;;;;2.87;100.00;100666.38;1700625;83;21016;-67
2022/01/07 05:35:38;;;;;;;19.32;9.20;;;;;;;2.80;100.00;100675.34;1700522;83;21032;-67
2022/01/07 05:38:06;;;;;;;16.00;10.05;;;;;;;2.79;100.00;100680.00;1704143;82;21122;-67
2022/01/07 05:40:32;;;;;;;16.40;9.68;;;;;;;2.74;100.00;100688.55;1698463;83;21564;-68
2022/01/07 05:42:59;;;;;;;18.70;10.88;;;;;;;2.66;100.00;100696.66;1703577;82;21024;-67
2022/01/07 05:45:26;;;;;;;18.00;10.82;;;;;;;2.59;100.00;100708.56;1698745;84;21618;-67
2022/01/07 05:47:53;;;;;;;18.65;11.22;;;;;;;2.54;100.00;100720.04;1688424;83;21032;-68
2022/01/07 05:50:20;;;;;;;20.02;11.28;;;;;;;2.50;100.00;100726.00;1702194;82;21055;-67
2022/01/07 05:52:47;;;;;;;19.85;10.78;;;;;;;2.47;100.00;100728.98;1674676;83;21048;-67
2022/01/07 05:55:14;;;;;;;20.05;11.15;;;;;;;2.42;100.00;100732.84;1695962;83;21104;-67
2022/01/07 05:57:43;;;;;;;20.65;12.25;;;;;;;2.39;100.00;100737.92;1700243;83;21051;-68
2022/01/07 06:00:11;;;;;;;20.75;12.45;;;;;;;2.39;100.00;100740.47;1693393;83;21037;-67
2022/01/07 06:02:42;;;;;;;22.70;11.68;;;;;;;2.40;100.00;100732.84;1692731;83;21543;-68
2022/01/07 06:05:09;;;;;;;20.65;12.07;;;;;;;2.40;100.00;100740.89;1695149;84;21130;-67
2022/01/07 06:07:36;;;;;;;21.57;11.85;;;;;;;2.40;100.00;100740.46;1694125;83;21071;-67
2022/01/07 06:10:05;;;;;;;21.95;12.70;;;;;;;2.34;100.00;100747.29;1692461;83;21527;-68
2022/01/07 06:12:32;;;;;;;20.65;12.43;;;;;;;2.36;100.00;100743.04;1694720;84;21111;-67
2022/01/07 06:14:59;;;;;;;21.02;11.83;;;;;;;2.36;100.00;100757.02;1690701;84;21032;-67
2022/01/07 06:17:26;;;;;;;21.12;12.30;;;;;;;2.31;100.00;100758.72;1666812;85;21108;-67
2022/01/07 06:19:53;;;;;;;21.97;12.75;;;;;;;2.33;100.00;100760.42;1693537;84;21062;-67
2022/01/07 06:22:20;;;;;;;20.77;12.28;;;;;;;2.35;100.00;100759.13;1695320;84;21584;-67
2022/01/07 06:24:47;;;;;;;23.12;13.00;;;;;;;2.42;100.00;100764.59;1700868;83;21524;-67
2022/01/07 06:27:13;;;;;;;20.52;11.85;;;;;;;2.46;100.00;100771.34;1716753;83;21087;-67
2022/01/07 06:29:40;;;;;;;20.70;11.25;;;;;;;2.45;100.00;100777.70;1701716;83;21001;-68
2022/01/07 06:32:08;;;;;;;17.15;10.50;;;;;;;2.46;100.00;100779.41;1705795;83;20988;-67
2022/01/07 06:34:36;;;;;;;23.62;11.97;;;;;;;2.45;100.00;100782.78;1704548;83;21028;-67
2022/01/07 06:37:05;;;;;;;24.82;12.47;;;;;;;2.40;100.00;100785.36;1696099;84;21484;-67
2022/01/07 06:39:32;;;;;;;21.02;12.33;;;;;;;2.46;100.00;100789.13;1701070;83;21489;-67
2022/01/07 06:42:00;;;;;;;21.70;12.83;;;;;;;2.48;100.00;100793.77;1702434;83;21044;-68
2022/01/07 06:44:28;;;;;;;22.37;12.50;;;;;;;2.50;100.00;100792.06;1696126;84;21060;-68
2022/01/07 06:46:55;;;;;;;20.43;11.90;;;;;;;2.59;100.00;100796.23;1703794;83;21507;-67
2022/01/07 06:49:21;;;;;;;21.82;11.50;;;;;;;2.63;100.00;100807.23;1704071;83;21047;-67
2022/01/07 06:51:50;;;;;;;20.92;11.53;;;;;;;2.66;100.00;100815.69;1700881;83;21624;-67
2022/01/07 06:54:18;;;;;;;19.17;11.33;;;;;;;2.67;100.00;100815.26;1698417;83;21027;-68
2022/01/07 06:56:46;;;;;;;20.15;12.25;;;;;;;2.63;100.00;100819.51;1692886;82;21035;-67
2022/01/07 06:59:13;;;;;;;22.07;12.68;;;;;;;2.68;100.00;100818.23;1699795;83;21043;-68
2022/01/07 07:01:42;;;;;;;21.07;12.33;;;;;;;2.74;100.00;100822.84;1698995;83;21043;-68
2022/01/07 07:04:09;;;;;;;19.37;11.57;;;;;;;2.74;100.00;100829.19;1712262;83;21114;-68
2022/01/07 07:06:35;;;;;;;18.55;11.35;;;;;;;2.78;100.00;100831.30;1708851;83;21504;-68
2022/01/07 07:09:04;;;;;;;24.27;12.20;;;;;;;2.85;100.00;100825.30;1682046;85;21064;-67
2022/01/07 07:11:31;;;;;;;25.75;12.88;;;;;;;2.87;100.00;100825.30;1681923;85;21056;-68
2022/01/07 07:13:58;;;;;;;21.35;12.50;;;;;;;2.95;100.00;100837.52;1687135;84;21577;-68
2022/01/07 07:16:26;;;;;;;19.50;11.68;;;;;;;3.00;100.00;100839.18;1671651;84;21095;-68
2022/01/07 07:18:53;;;;;;;18.98;10.82;;;;;;;3.08;100.00;100840.40;1667079;85;21520;-67
2022/01/07 07:21:20;;;;;;;18.65;11.78;;;;;;;3.13;100.00;100840.35;1662336;86;21064;-67
2022/01/07 07:23:47;;;;;;;18.85;11.73;;;;;;;3.14;100.00;100848.38;1669270;85;21587;-67
2022/01/07 07:26:15;;;;;;;21.55;11.95;;;;;;;3.22;100.00;100845.34;1664074;86;21068;-67
2022/01/07 07:28:41;;;;;;;18.45;10.58;;;;;;;3.33;100.00;100837.20;1662836;86;21538;-68
2022/01/07 07:31:14;;;;;;;21.10;12.73;;;;;;;3.36;100.00;100849.05;1663779;86;21576;-68
2022/01/07 07:36:27;;;;;;;19.77;11.22;;;;;;;3.60;100.00;100863.26;1666246;84;21567;-68
2022/01/07 07:38:55;;;;;;;20.97;10.95;;;;;;;3.67;100.00;100869.12;1642952;86;21158;-67
2022/01/07 07:41:22;;;;;;;18.90;11.38;;;;;;;3.84;100.00;100872.80;1666755;84;21075;-68
2022/01/07 07:43:50;;;;;;;23.90;13.50;;;;;;;3.86;100.00;100878.72;1662325;86;21048;-67
2022/01/07 07:46:19;;;;;;;23.00;12.82;;;;;;;3.97;100.00;100887.06;1642212;86;21138;-68
2022/01/07 07:48:47;;;;;;;20.08;11.83;;;;;;;3.89;100.00;100886.30;1664265;86;21147;-67
2022/01/07 07:51:15;;;;;;;18.65;11.68;;;;;;;3.83;100.00;100893.57;1667245;86;21071;-68
2022/01/07 07:53:42;;;;;;;21.93;12.28;;;;;;;3.86;100.00;100898.65;1665253;84;21116;-68
2022/01/07 07:56:13;;;;;;;22.37;12.05;;;;;;;3.83;100.00;100902.92;1662149;85;21136;-68
2022/01/07 07:58:42;;;;;;;21.20;12.30;;;;;;;3.73;100.00;100904.30;1667963;86;21635;-68
2022/01/07 08:01:10;;;;;;;22.37;13.32;;;;;;;3.80;100.00;100892.34;1664158;86;21092;-67
2022/01/07 08:03:38;;;;;;;21.80;12.03;;;;;;;3.86;100.00;100890.17;1662420;86;21557;-68
2022/01/07 08:06:05;;;;;;;18.10;10.85;;;;;;;3.86;100.00;100897.81;1641898;86;21067;-68
2022/01/07 08:08:31;;;;;;;19.42;11.70;;;;;;;3.88;100.00;100905.84;1664174;86;21536;-68
2022/01/07 08:11:06;;;;;;;19.12;11.35;;;;;;;3.88;100.00;100908.83;1667132;86;21070;-68
2022/01/07 08:15:58;;;;;;;20.60;11.53;;;;;;;3.89;100.00;100907.95;1667469;85;21053;-67
2022/01/07 08:16:06;;;;;;;17.32;10.03;;;;;;;3.95;100.00;100911.30;1668889;85;21053;-67
2022/01/07 08:18:36;;;;;;;17.57;10.72;;;;;;;3.91;100.00;100904.95;1705909;82;21015;-67
2022/01/07 08:21:10;;;;;;;18.25;11.18;;;;;;;3.96;100.00;100907.05;1706736;83;21000;-68
2022/01/07 08:23:41;;;;;;;17.00;10.45;;;;;;;3.99;100.00;100912.09;1701693;83;21023;-68
2022/01/07 08:26:11;;;;;;;18.90;11.05;;;;;;;3.90;100.00;100917.30;1699743;83;21031;-68
2022/01/07 08:28:46;;;;;;;18.95;11.22;;;;;;;3.89;100.00;100911.77;1700655;82;21477;-68
2022/01/07 08:36:30;;;;;;;15.23;9.53;;;;;;;3.78;100.00;100914.44;1705494;83;21102;-67
2022/01/07 08:38:59;;;;;;;17.07;10.82;;;;;;;3.71;100.00;100918.75;1705899;82;21074;-68
2022/01/07 08:41:31;;;;;;;17.07;10.60;;;;;;;3.79;100.00;100915.70;1705658;83;21122;-68
2022/01/07 08:43:58;;;;;;;15.98;9.95;;;;;;;3.91;100.00;100918.97;1696835;83;21566;-68
2022/01/07 08:46:28;;;;;;;15.05;9.38;;;;;;;3.95;100.00;100921.49;1708897;83;21051;-67
2022/01/07 08:48:56;;;;;;;16.17;9.48;;;;;;;3.97;100.00;100936.73;1698155;83;21366;-68
2022/01/07 08:51:23;;;;;;;14.40;8.83;;;;;;;3.92;100.00;100941.05;1701518;83;21106;-68
2022/01/07 08:53:50;;;;;;;15.10;9.83;;;;;;;3.97;100.00;100941.42;1708762;83;21471;-67
2022/01/07 08:56:18;;;;;;;13.78;9.03;;;;;;;3.92;100.00;100948.69;1703785;82;21185;-67
2022/01/07 08:58:45;;;;;;;13.88;8.58;;;;;;;3.98;100.00;100955.83;1701234;83;21031;-67
2022/01/07 09:01:11;;;;;;;13.88;8.50;;;;;;;4.00;100.00;100957.09;1696256;82;21464;-67
2022/01/07 09:03:39;;;;;;;14.93;9.00;;;;;;;3.99;100.00;100960.48;1692898;82;21555;-67
2022/01/07 09:06:05;;;;;;;11.83;8.23;;;;;;;4.08;100.00;100969.33;1708672;83;20976;-68
2022/01/07 09:08:34;;;;;;;13.45;8.78;;;;;;;4.05;100.00;100967.23;1695060;84;21059;-68
2022/01/07 09:11:00;;;;;;;12.28;8.18;;;;;;;4.07;100.00;100977.81;1702544;83;21004;-68
2022/01/07 09:13:27;;;;;;;12.78;8.18;;;;;;;4.05;100.00;100979.53;1703992;83;21044;-67
2022/01/07 09:15:55;;;;;;;12.43;8.13;;;;;;;4.12;100.00;101000.72;1706834;82;21037;-68
2022/01/07 09:18:21;;;;;;;11.97;8.05;;;;;;;4.13;100.00;100985.84;1711116;83;21024;-68
2022/01/07 09:20:49;;;;;;;12.82;8.68;;;;;;;4.18;100.00;100991.75;1704737;82;21063;-68
2022/01/07 09:23:16;;;;;;;13.45;8.58;;;;;;;4.17;100.00;100991.31;1667047;84;21567;-68
2022/01/07 09:25:44;;;;;;;12.63;7.67;;;;;;;4.24;100.00;100987.86;1695686;83;21051;-68
2022/01/07 09:28:11;;;;;;;13.28;8.23;;;;;;;4.25;100.00;101003.98;1691247;83;21567;-68
2022/01/07 09:30:38;;;;;;;13.13;7.80;;;;;;;4.31;100.00;101003.92;1691070;84;21054;-67
2022/01/07 09:33:06;;;;;;;9.95;6.40;;;;;;;4.38;100.00;100996.64;1695401;83;21051;-67
2022/01/07 09:35:34;;;;;;;10.53;7.17;;;;;;;4.28;100.00;101027.74;1686149;84;22498;-68
2022/01/07 09:38:04;;;;;;;10.50;6.83;;;;;;;4.32;100.00;100995.00;1660259;85;21701;-68
2022/01/07 09:40:32;;;;;;;8.95;6.67;;;;;;;4.38;100.00;100999.19;1684113;85;21076;-68
2022/01/07 09:43:06;;;;;;;10.80;6.67;;;;;;;4.36;100.00;101002.16;1685924;85;21111;-68
2022/01/07 09:45:36;;;;;;;10.75;6.62;;;;;;;4.40;100.00;100999.58;1681918;85;21076;-68
2022/01/07 09:48:04;;;;;;;7.58;5.37;;;;;;;4.40;100.00;101010.22;1682534;84;21052;-68
2022/01/07 09:50:33;;;;;;;6.65;5.08;;;;;;;4.44;100.00;101008.05;1678124;84;21107;-68
2022/01/07 09:53:06;;;;;;;8.65;5.30;;;;;;;4.30;100.00;101022.61;1678901;84;21079;-67
2022/01/07 09:55:34;;;;;;;6.30;4.53;;;;;;;4.20;100.00;101016.78;1679198;84;21078;-67
2022/01/07 09:58:03;;;;;;;6.08;4.58;;;;;;;4.20;100.00;101020.60;1694358;83;21024;-67
2022/01/07 10:00:40;;;;;;;6.90;5.22;;;;;;;4.18;100.00;101015.95;1709692;81;20971;-68
2022/01/07 10:03:14;;;;;;;6.15;4.25;;;;;;;4.09;100.00;101028.77;1704920;83;21036;-68
2022/01/07 10:05:47;;;;;;;7.15;4.55;;;;;;;4.06;100.00;101036.45;1698731;82;21012;-68
2022/01/07 10:08:27;;;;;;;6.25;3.98;;;;;;;3.95;100.00;101030.15;1698089;83;21055;-68
2022/01/07 10:11:19;;;;;;;6.80;4.17;;;;;;;3.84;100.00;101031.52;1658434;86;21032;-68
2022/01/07 10:13:50;;;;;;;6.47;4.58;;;;;;;3.90;100.00;101030.20;1691467;84;21527;-68
2022/01/07 10:16:20;;;;;;;6.47;4.40;;;;;;;4.00;100.00;101033.08;1691021;84;21083;-69
2022/01/07 10:18:48;;;;;;;7.08;4.47;;;;;;;4.00;100.00;101041.16;1690656;84;21051;-68
2022/01/07 10:21:18;;;;;;;5.72;4.12;;;;;;;4.07;100.00;101035.14;1690634;83;21000;-68
2022/01/07 10:23:46;;;;;;;5.28;3.67;;;;;;;4.01;100.00;101042.83;1690599;84;21528;-69
2022/01/07 10:26:17;;;;;;;5.62;4.20;;;;;;;3.95;100.00;101032.70;1690497;84;21059;-69
2022/01/07 10:28:47;;;;;;;4.65;3.80;;;;;;;3.99;100.00;101040.33;1690745;83;21584;-68
2022/01/07 10:31:24;;;;;;;5.12;3.62;;;;;;;4.05;100.00;101039.84;1696088;84;21039;-69
2022/01/07 10:33:53;;;;;;;5.53;3.75;;;;;;;4.06;100.00;101045.36;1695158;83;21102;-68
2022/01/07 10:36:24;;;;;;;6.03;3.70;;;;;;;3.94;100.00;101036.12;1687074;85;21031;-68
2022/01/07 10:39:00;;;;;;;5.80;3.92;;;;;;;4.04;100.00;101039.00;1671816;84;21019;-69
2022/01/07 10:41:27;;;;;;;5.30;3.83;;;;;;;4.13;100.00;101041.45;1690831;85;21114;-67
2022/01/07 10:43:57;;;;;;;6.30;4.30;;;;;;;4.18;100.00;101049.91;1691996;83;21067;-68
2022/01/07 10:46:31;;;;;;;6.78;4.50;;;;;;;4.24;100.00;101043.05;1693766;84;21099;-69
2022/01/07 10:49:01;;;;;;;8.08;4.50;;;;;;;4.33;100.00;101048.08;1696326;84;21520;-68
2022/01/07 10:51:38;;;;;;;5.80;4.15;;;;;;;4.46;100.00;101042.42;1693277;84;21083;-69
2022/01/07 10:54:10;;;;;;;5.12;4.25;;;;;;;4.46;100.00;101054.77;1692351;83;21546;-68
2022/01/07 10:56:50;;;;;;;4.83;3.95;;;;;;;4.29;100.00;101056.62;1697984;83;21008;-69
2022/01/07 10:59:19;;;;;;;5.05;3.72;;;;;;;4.17;100.00;101052.03;1695854;83;21102;-68
2022/01/07 11:01:56;;;;;;;4.42;3.72;;;;;;;3.92;100.00;101056.94;1696234;83;21083;-68
2022/01/07 11:04:26;;;;;;;5.17;3.70;;;;;;;3.90;100.00;101059.48;1692606;84;21063;-68
2022/01/07 11:06:58;;;;;;;5.30;3.47;;;;;;;3.87;100.00;101063.31;1691057;83;21063;-68
2022/01/07 11:09:24;;;;;;;5.20;3.45;;;;;;;4.04;100.00;101064.91;1691250;83;21095;-68
2022/01/07 11:12:00;;;;;;;4.22;3.15;;;;;;;4.19;100.00;101063.05;1667871;85;21110;-68
2022/01/07 11:14:31;;;;;;;4.72;3.30;;;;;;;4.38;100.00;101070.13;1692586;84;21050;-69
2022/01/07 11:17:04;;;;;;;4.20;3.27;;;;;;;4.59;100.00;101067.78;1672418;84;21102;-67
2022/01/07 11:19:35;;;;;;;3.62;3.15;;;;;;;4.51;100.00;101065.73;1695439;84;21110;-68
2022/01/07 11:22:03;;;;;;;6.25;3.87;;;;;;;4.57;100.00;101075.88;1691302;83;21516;-68
2022/01/07 11:24:46;;;;;;;5.12;4.37;;;;;;;4.48;100.00;101073.84;1692216;83;21588;-68
2022/01/07 11:27:20;;;;;;;7.45;5.15;;;;;;;4.41;100.00;101070.52;1693979;83;21091;-68